createdAt,value
2022-09-26T00:01:51.341Z,95976.88
2022-09-26T00:04:32.956Z,95982.16
2022-09-26T00:07:08.893Z,95981.84
2022-09-26T00:09:41.869Z,96027.53
2022-09-26T00:12:10.069Z,96019.53
2022-09-26T00:14:38.286Z,96025.69
2022-09-26T00:17:06.531Z,96077.66
2022-09-26T00:19:34.828Z,96024.66
2022-09-26T00:22:03.026Z,96006.94
2022-09-26T00:24:32.791Z,95973.25
2022-09-26T00:27:00.991Z,95984.78
2022-09-26T00:29:29.304Z,96025.47
2022-09-26T00:31:57.684Z,96023.13
2022-09-26T00:34:25.927Z,95975.88
2022-09-26T00:36:54.156Z,96017.97
2022-09-26T00:39:22.428Z,95998.75
2022-09-26T00:41:52.086Z,96012.31
2022-09-26T00:44:46.070Z,96002.06
2022-09-26T00:47:40.604Z,96040.34
2022-09-26T00:50:18.403Z,95996.81
2022-09-26T00:52:53.834Z,95984.31
2022-09-26T00:55:30.810Z,96030.59
2022-09-26T00:58:05.784Z,95982.47
2022-09-26T01:00:35.203Z,95998.63
2022-09-26T01:03:04.629Z,96021.69
2022-09-26T01:05:34.093Z,96009.81
2022-09-26T01:08:03.431Z,96012.50
2022-09-26T01:10:34.360Z,95983.84
2022-09-26T01:13:04.500Z,96011.44
2022-09-26T01:15:36.113Z,96038.81
2022-09-26T01:18:07.679Z,96019.53
2022-09-26T01:20:49.696Z,95993.78
2022-09-26T01:24:05.686Z,95952.09
2022-09-26T01:27:05.620Z,95965.94
2022-09-26T01:30:13.114Z,95993.78
2022-09-26T01:33:40.279Z,95991.13
2022-09-26T01:36:45.618Z,95977.00
2022-09-26T01:39:37.513Z,96007.38
2022-09-26T01:42:18.012Z,96013.13
2022-09-26T01:44:54.390Z,95948.09
2022-09-26T01:47:30.926Z,96015.34
2022-09-26T01:50:08.467Z,96037.13
2022-09-26T01:52:44.472Z,96006.75
2022-09-26T01:55:16.423Z,96022.00
2022-09-26T01:57:50.748Z,96021.28
2022-09-26T02:00:20.279Z,95985.50
2022-09-26T02:02:52.229Z,95984.28
2022-09-26T02:05:28.772Z,95999.69
2022-09-26T02:08:06.240Z,96004.56
2022-09-26T02:10:39.146Z,95956.13
2022-09-26T02:13:17.808Z,95964.72
2022-09-26T02:15:49.658Z,96001.16
2022-09-26T02:18:30.738Z,96018.75
2022-09-26T02:21:04.227Z,95975.13
2022-09-26T02:23:32.601Z,95949.06
2022-09-26T02:26:01.254Z,96003.91
2022-09-26T02:28:29.507Z,95931.09
2022-09-26T02:30:59.457Z,95931.22
2022-09-26T02:33:29.477Z,95998.03
2022-09-26T02:35:58.757Z,95965.94
2022-09-26T02:38:32.177Z,95956.19
2022-09-26T02:41:19.093Z,95996.84
2022-09-26T02:44:15.691Z,95923.84
2022-09-26T02:47:22.997Z,95991.09
2022-09-26T02:50:19.344Z,95998.69
2022-09-26T02:52:58.131Z,95974.88
2022-09-26T02:55:47.191Z,95998.25
2022-09-26T02:58:23.146Z,95976.41
2022-09-26T03:01:02.137Z,95904.91
2022-09-26T03:03:36.957Z,95968.97
2022-09-26T03:06:13.677Z,96007.38
2022-09-26T03:08:48.125Z,95937.38
2022-09-26T03:11:21.605Z,95948.72
2022-09-26T03:13:53.904Z,95999.25
2022-09-26T03:16:24.725Z,95972.91
2022-09-26T03:18:58.442Z,95940.38
2022-09-26T03:21:28.645Z,95969.50
2022-09-26T03:23:58.090Z,95984.34
2022-09-26T03:26:29.457Z,95919.38
2022-09-26T03:29:01.376Z,95934.06
2022-09-26T03:31:32.392Z,95957.13
2022-09-26T03:34:02.781Z,95934.34
2022-09-26T03:36:33.167Z,95944.84
2022-09-26T03:39:03.563Z,95910.63
2022-09-26T03:41:45.317Z,95951.41
2022-09-26T03:44:33.779Z,95939.25
2022-09-26T03:47:04.959Z,95924.19
2022-09-26T03:49:38.840Z,95893.91
2022-09-26T03:52:11.675Z,95588.75
2022-09-26T03:54:40.234Z,95974.75
2022-09-26T03:57:09.866Z,95941.94
2022-09-26T03:59:42.867Z,95910.41
2022-09-26T04:02:12.504Z,95912.31
2022-09-26T04:04:49.118Z,95929.44
2022-09-26T04:07:23.980Z,95866.44
2022-09-26T04:09:57.205Z,95922.59
2022-09-26T04:12:25.723Z,95900.59
2022-09-26T04:14:54.038Z,95930.44
2022-09-26T04:17:22.471Z,95918.28
2022-09-26T04:19:51.044Z,95935.66
2022-09-26T04:22:20.600Z,95899.66
2022-09-26T04:24:49.843Z,95933.72
2022-09-26T04:27:18.281Z,95912.16
2022-09-26T04:29:47.582Z,95914.84
2022-09-26T04:32:37.015Z,95756.63
2022-09-26T04:35:17.207Z,95830.19
2022-09-26T04:37:47.369Z,95885.38
2022-09-26T04:40:16.236Z,95866.06
2022-09-26T04:42:56.410Z,95894.53
2022-09-26T04:45:24.715Z,95891.34
2022-09-26T04:47:52.918Z,95889.16
2022-09-26T04:50:27.274Z,95858.66
2022-09-26T04:53:11.829Z,95835.31
2022-09-26T04:55:47.988Z,95877.94
2022-09-26T04:58:18.041Z,95829.94
2022-09-26T05:00:49.626Z,95854.34
2022-09-26T05:03:28.406Z,95887.22
2022-09-26T05:05:57.090Z,95814.41
2022-09-26T05:08:27.493Z,95864.28
2022-09-26T05:10:57.932Z,95880.25
2022-09-26T05:13:28.121Z,95850.97
2022-09-26T05:15:59.365Z,95867.59
2022-09-26T05:18:29.420Z,95734.31
2022-09-26T05:21:01.327Z,95861.19
2022-09-26T05:23:48.604Z,95889.63
2022-09-26T05:26:22.635Z,95892.28
2022-09-26T05:28:54.477Z,95883.41
2022-09-26T05:31:29.127Z,95890.31
2022-09-26T05:33:57.550Z,95846.16
2022-09-26T05:36:26.529Z,95847.25
2022-09-26T05:38:56.924Z,95879.31
2022-09-26T05:41:27.853Z,95869.28
2022-09-26T05:43:57.017Z,95865.31
2022-09-26T05:46:28.526Z,95905.03
2022-09-26T05:49:00.750Z,95842.47
2022-09-26T05:51:29.476Z,95856.22
2022-09-26T05:53:59.122Z,95847.91
2022-09-26T05:56:29.050Z,95911.03
2022-09-26T05:59:34.072Z,95874.06
2022-09-26T06:02:22.584Z,95824.81
2022-09-26T06:05:05.278Z,95817.41
2022-09-26T06:07:40.570Z,95875.41
2022-09-26T06:10:17.509Z,95881.78
2022-09-26T06:12:54.686Z,95843.13
2022-09-26T06:15:24.886Z,95836.84
2022-09-26T06:18:00.464Z,95887.31
2022-09-26T06:20:28.979Z,95890.56
2022-09-26T06:22:57.493Z,95850.84
2022-09-26T06:25:27.215Z,95783.91
2022-09-26T06:28:00.561Z,95823.38
2022-09-26T06:30:30.442Z,95819.06
2022-09-26T06:33:12.591Z,95839.50
2022-09-26T06:36:01.659Z,95789.50
2022-09-26T06:38:35.661Z,95861.94
2022-09-26T06:41:07.774Z,95790.34
2022-09-26T06:43:36.301Z,95857.97
2022-09-26T06:46:24.798Z,95820.69
2022-09-26T06:49:18.840Z,95835.44
2022-09-26T06:52:03.465Z,95808.63
2022-09-26T06:54:31.733Z,95784.78
2022-09-26T06:57:01.208Z,95779.50
2022-09-26T06:59:29.573Z,95839.19
2022-09-26T07:02:19.299Z,95810.94
2022-09-26T07:05:02.767Z,95853.19
2022-09-26T07:07:43.327Z,95761.50
2022-09-26T07:10:20.298Z,95780.81
2022-09-26T07:13:07.675Z,95735.66
2022-09-26T07:15:37.136Z,95835.88
2022-09-26T07:18:31.205Z,95825.34
2022-09-26T07:21:11.817Z,95802.59
2022-09-26T07:23:49.259Z,95774.63
2022-09-26T07:26:20.481Z,95781.31
2022-09-26T07:28:54.571Z,95778.16
2022-09-26T07:31:24.520Z,95820.88
2022-09-26T07:34:05.091Z,95808.91
2022-09-26T07:36:33.654Z,95782.94
2022-09-26T07:39:02.224Z,95805.25
2022-09-26T07:41:31.483Z,95781.50
2022-09-26T07:47:09.423Z,95798.84
2022-09-26T07:49:55.342Z,95852.13
2022-09-26T07:52:35.931Z,95799.94
2022-09-26T07:55:30.433Z,95838.19
2022-09-26T07:58:11.566Z,95833.28
2022-09-26T08:00:54.427Z,95815.91
2022-09-26T08:03:49.539Z,95807.28
2022-09-26T08:06:39.198Z,95790.66
2022-09-26T08:09:09.288Z,95761.19
2022-09-26T08:11:56.227Z,95781.53
2022-09-26T08:14:53.953Z,95744.66
2022-09-26T08:17:41.253Z,95798.84
2022-09-26T08:20:10.920Z,95763.22
2022-09-26T08:22:39.306Z,95790.66
2022-09-26T08:25:10.153Z,95836.72
2022-09-26T08:27:43.552Z,95769.44
2022-09-26T08:30:13.589Z,95752.19
2022-09-26T08:32:44.452Z,95781.41
2022-09-26T08:35:14.839Z,95755.59
2022-09-26T08:38:03.661Z,95782.63
2022-09-26T08:40:54.598Z,95767.97
2022-09-26T08:43:57.705Z,95785.66
2022-09-26T08:46:57.094Z,95705.63
2022-09-26T08:50:13.978Z,95787.41
2022-09-26T08:52:46.293Z,95709.97
2022-09-26T08:55:19.185Z,95741.06
2022-09-26T08:57:51.559Z,95795.00
2022-09-26T09:00:24.943Z,95729.50
2022-09-26T09:03:21.348Z,95748.16
2022-09-26T09:05:56.576Z,95717.31
2022-09-26T09:08:30.217Z,95711.88
2022-09-26T09:11:22.045Z,95738.69
2022-09-26T09:14:06.138Z,95726.09
2022-09-26T09:17:13.691Z,95742.47
2022-09-26T09:20:05.262Z,95727.56
2022-09-26T09:23:14.973Z,95680.66
2022-09-26T09:27:52.518Z,95761.91
2022-09-26T09:29:10.476Z,95742.03
2022-09-26T09:31:43.032Z,95696.91
2022-09-26T09:34:50.122Z,95696.88
2022-09-26T09:37:47.746Z,95709.53
2022-09-26T09:40:38.282Z,95707.47
2022-09-26T09:43:14.610Z,95703.03
2022-09-26T09:45:48.399Z,95754.59
2022-09-26T09:48:17.104Z,95696.72
2022-09-26T09:50:59.950Z,95738.75
2022-09-26T09:53:48.705Z,95732.63
2022-09-26T09:56:31.910Z,95711.00
2022-09-26T09:59:15.930Z,95630.06
2022-09-26T10:02:34.907Z,95675.03
2022-09-26T10:05:24.339Z,95729.09
2022-09-26T10:07:58.032Z,95692.53
2022-09-26T10:10:57.112Z,95705.75
2022-09-26T10:13:46.458Z,95680.31
2022-09-26T10:16:29.052Z,95678.28
2022-09-26T10:19:08.060Z,95659.97
2022-09-26T10:21:39.876Z,95618.91
2022-09-26T10:24:23.975Z,95699.44
2022-09-26T10:26:57.349Z,95691.47
2022-09-26T10:29:38.377Z,95707.16
2022-09-26T10:32:07.860Z,95600.72
2022-09-26T10:34:39.923Z,95632.84
2022-09-26T10:37:23.411Z,95655.84
2022-09-26T10:40:17.227Z,95646.06
2022-09-26T10:42:47.297Z,95725.06
2022-09-26T10:45:20.374Z,95677.81
2022-09-26T10:48:43.361Z,95666.00
2022-09-26T10:51:42.474Z,95675.03
2022-09-26T10:54:14.751Z,95698.41
2022-09-26T10:56:48.738Z,95633.09
2022-09-26T10:59:20.468Z,95666.44
2022-09-26T11:01:56.475Z,95633.91
2022-09-26T11:04:46.237Z,95697.84
2022-09-26T11:07:39.683Z,95689.63
2022-09-26T11:10:32.417Z,95653.22
2022-09-26T11:13:18.510Z,95651.44
2022-09-26T11:16:01.415Z,95658.31
2022-09-26T11:18:44.517Z,95585.13
2022-09-26T11:21:28.796Z,95581.63
2022-09-26T11:24:11.772Z,95622.09
2022-09-26T11:26:51.206Z,95620.44
2022-09-26T11:29:28.367Z,95588.31
2022-09-26T11:32:05.656Z,95602.72
2022-09-26T11:34:54.635Z,95593.13
2022-09-26T11:37:50.720Z,95566.19
2022-09-26T11:40:36.349Z,95582.88
2022-09-26T11:43:24.569Z,95550.13
2022-09-26T11:46:21.190Z,95614.13
2022-09-26T11:50:00.223Z,95569.16
2022-09-26T11:52:50.325Z,95580.56
2022-09-26T11:55:31.134Z,95558.63
2022-09-26T11:58:11.646Z,95582.03
2022-09-26T12:00:54.615Z,95593.19
2022-09-26T12:03:56.024Z,95573.72
2022-09-26T12:06:33.679Z,95598.72
2022-09-26T12:09:28.068Z,95529.44
2022-09-26T12:12:09.679Z,95570.97
2022-09-26T12:14:54.189Z,95562.03
2022-09-26T12:17:37.834Z,95617.63
2022-09-26T12:20:24.888Z,95559.72
2022-09-26T12:23:01.708Z,95518.34
2022-09-26T12:25:44.956Z,95573.19
2022-09-26T12:28:25.516Z,95535.63
2022-09-26T12:31:07.778Z,95569.72
2022-09-26T12:33:57.246Z,95585.00
2022-09-26T12:36:40.453Z,95540.09
2022-09-26T12:39:36.569Z,95580.31
2022-09-26T12:42:43.457Z,95574.97
2022-09-26T12:45:35.113Z,95560.88
2022-09-26T12:48:22.721Z,95516.16
2022-09-26T12:51:07.565Z,95554.38
2022-09-26T12:54:19.385Z,95538.44
2022-09-26T12:56:54.202Z,95516.03
2022-09-26T12:59:52.880Z,95498.66
2022-09-26T13:02:46.741Z,95471.47
2022-09-26T13:06:07.811Z,95461.03
2022-09-26T13:08:46.894Z,95512.25
2022-09-26T13:11:29.212Z,95488.13
2022-09-26T13:14:39.514Z,95439.38
2022-09-26T13:17:14.209Z,95433.03
2022-09-26T13:19:48.202Z,95430.50
2022-09-26T13:22:34.457Z,95435.28
2022-09-26T13:25:19.620Z,95511.88
2022-09-26T13:27:55.913Z,95422.31
2022-09-26T13:30:35.270Z,95414.41
2022-09-26T13:33:15.077Z,95423.91
2022-09-26T13:35:47.927Z,95405.34
2022-09-26T13:38:38.000Z,95431.91
2022-09-26T13:41:27.239Z,95473.28
2022-09-26T13:44:09.524Z,95495.09
2022-09-26T13:47:03.302Z,95453.81
2022-09-26T13:49:49.926Z,95465.81
2022-09-26T13:52:30.452Z,95408.00
2022-09-26T13:55:02.260Z,95463.84
2022-09-26T13:57:39.008Z,95418.59
2022-09-26T14:00:54.607Z,95395.28
2022-09-26T14:03:42.433Z,95388.69
2022-09-26T14:06:31.919Z,95420.19
2022-09-26T14:09:28.589Z,95443.97
2022-09-26T14:12:21.946Z,95358.50
2022-09-26T14:15:20.921Z,95394.06
2022-09-26T14:18:18.223Z,95405.88
2022-09-26T14:21:15.893Z,95379.97
2022-09-26T14:23:46.212Z,95408.13
2022-09-26T14:26:21.021Z,95365.81
2022-09-26T14:28:54.742Z,95343.78
2022-09-26T14:32:00.955Z,95346.03
2022-09-26T14:34:35.395Z,95412.41
2022-09-26T14:37:25.726Z,95357.13
2022-09-26T14:40:03.488Z,95351.44
2022-09-26T14:42:38.344Z,95391.00
2022-09-26T14:45:18.408Z,95390.50
2022-09-26T14:47:56.067Z,95412.53
2022-09-26T14:50:35.340Z,95349.91
2022-09-26T14:53:18.848Z,95354.63
2022-09-26T14:56:00.568Z,95379.84
2022-09-26T14:58:46.267Z,95316.38
2022-09-26T15:01:20.780Z,95295.75
2022-09-26T15:03:57.650Z,95326.81
2022-09-26T15:06:27.785Z,95376.19
2022-09-26T15:08:59.305Z,95323.81
2022-09-26T15:11:41.238Z,95311.91
2022-09-26T15:14:23.452Z,95340.41
2022-09-26T15:16:55.005Z,95335.72
2022-09-26T15:19:28.113Z,95361.78
2022-09-26T15:22:01.150Z,95323.88
2022-09-26T15:24:33.449Z,95345.47
2022-09-26T15:27:09.280Z,95355.19
2022-09-26T15:29:46.188Z,95371.31
2022-09-26T15:32:19.710Z,95363.34
2022-09-26T15:34:48.771Z,95302.41
2022-09-26T15:37:21.238Z,95384.56
2022-09-26T15:39:51.492Z,95337.66
2022-09-26T15:42:44.457Z,95325.88
2022-09-26T15:45:30.419Z,95357.03
2022-09-26T15:48:01.913Z,95355.00
2022-09-26T15:50:39.063Z,95350.53
2022-09-26T15:53:15.144Z,95328.97
2022-09-26T15:55:51.943Z,95380.84
2022-09-26T15:58:24.805Z,95312.00
2022-09-26T16:00:54.081Z,95374.16
2022-09-26T16:03:45.373Z,95298.25
2022-09-26T16:06:29.391Z,95361.66
2022-09-26T16:09:09.444Z,95290.97
2022-09-26T16:11:47.746Z,95271.22
2022-09-26T16:14:27.817Z,95316.13
2022-09-26T16:17:01.164Z,95326.69
2022-09-26T16:19:36.307Z,95339.72
2022-09-26T16:22:36.144Z,95359.22
2022-09-26T16:25:24.329Z,95305.56
2022-09-26T16:28:19.041Z,95305.06
2022-09-26T16:31:03.696Z,95297.34
2022-09-26T16:33:34.640Z,95274.53
2022-09-26T16:36:18.130Z,95307.72
2022-09-26T16:38:59.968Z,95312.03
2022-09-26T16:42:03.683Z,95324.97
2022-09-26T16:44:33.454Z,95315.41
2022-09-26T16:47:05.882Z,95294.00
2022-09-26T16:49:47.132Z,95291.06
2022-09-26T16:52:29.991Z,95282.94
2022-09-26T16:55:00.509Z,95289.25
2022-09-26T16:57:31.855Z,95284.09
2022-09-26T17:00:23.077Z,95256.72
2022-09-26T17:02:51.474Z,95305.03
2022-09-26T17:05:22.624Z,95156.16
2022-09-26T17:07:51.424Z,95275.84
2022-09-26T17:10:24.361Z,95317.84
2022-09-26T17:12:53.329Z,95247.03
2022-09-26T17:15:29.010Z,95253.28
2022-09-26T17:18:01.690Z,95284.81
2022-09-26T17:20:34.344Z,95257.00
2022-09-26T17:23:21.943Z,95423.06
2022-09-26T17:25:56.802Z,95224.28
2022-09-26T17:28:32.207Z,95246.53
2022-09-26T17:31:06.437Z,95211.25
2022-09-26T17:33:39.204Z,95265.19
2022-09-26T17:36:10.970Z,95146.94
2022-09-26T17:38:41.166Z,95284.28
2022-09-26T17:41:12.562Z,95216.50
2022-09-26T17:43:41.033Z,95228.28
2022-09-26T17:46:15.863Z,95258.91
2022-09-26T17:48:45.727Z,95226.72
2022-09-26T17:51:15.070Z,95226.47
2022-09-26T17:53:50.624Z,95273.34
2022-09-26T17:56:20.616Z,95193.88
2022-09-26T17:58:52.080Z,95268.47
2022-09-26T18:04:22.527Z,95252.25
2022-09-26T18:06:50.999Z,95238.00
2022-09-26T18:09:22.244Z,95240.88
2022-09-26T18:12:02.796Z,95143.28
2022-09-26T18:14:33.661Z,95268.25
2022-09-26T18:17:04.368Z,95201.91
2022-09-26T18:19:35.202Z,95249.00
2022-09-26T18:22:03.769Z,95222.72
2022-09-26T18:24:32.229Z,95209.22
2022-09-26T18:27:04.059Z,95198.50
2022-09-26T18:29:37.213Z,95205.38
2022-09-26T18:32:15.006Z,95206.88
2022-09-26T18:34:43.287Z,95244.41
2022-09-26T18:37:11.530Z,95196.09
2022-09-26T18:39:39.841Z,95235.66
2022-09-26T18:42:10.150Z,95209.28
2022-09-26T18:44:38.803Z,95031.47
2022-09-26T18:47:18.569Z,95201.78
2022-09-26T18:49:48.641Z,95152.91
2022-09-26T18:52:19.109Z,95172.78
2022-09-26T18:55:07.887Z,95219.81
2022-09-26T18:57:53.887Z,95325.31
2022-09-26T19:00:22.183Z,94985.75
2022-09-26T19:02:52.540Z,95197.16
2022-09-26T19:05:21.640Z,95115.69
2022-09-26T19:07:49.981Z,95174.63
2022-09-26T19:10:22.638Z,95151.50
2022-09-26T19:12:50.982Z,95187.00
2022-09-26T19:15:19.834Z,95174.81
2022-09-26T19:17:49.973Z,95132.28
2022-09-26T19:20:20.100Z,95231.81
2022-09-26T19:22:48.585Z,95125.34
2022-09-26T19:25:16.927Z,95147.22
2022-09-26T19:27:49.859Z,95124.97
2022-09-26T19:30:21.168Z,95164.31
2022-09-26T19:32:52.586Z,95139.56
2022-09-26T19:35:28.324Z,95132.28
2022-09-26T19:37:56.583Z,95176.03
2022-09-26T19:40:26.443Z,95160.63
2022-09-26T19:42:57.089Z,95135.38
2022-09-26T19:45:26.282Z,95080.09
2022-09-26T19:47:56.498Z,95111.69
2022-09-26T19:50:27.174Z,95143.28
2022-09-26T19:52:58.424Z,95061.63
2022-09-26T19:55:29.789Z,95125.84
2022-09-26T19:58:03.202Z,94980.47
2022-09-26T20:00:37.001Z,95097.06
2022-09-26T20:03:29.470Z,95153.38
2022-09-26T20:05:59.694Z,95043.56
2022-09-26T20:08:35.862Z,95050.91
2022-09-26T20:11:04.234Z,95017.00
2022-09-26T20:13:52.963Z,95088.34
2022-09-26T20:16:21.588Z,95040.34
2022-09-26T20:18:51.145Z,95120.59
2022-09-26T20:21:26.393Z,95147.31
2022-09-26T20:23:54.976Z,95106.81
2022-09-26T20:26:23.743Z,94410.38
2022-09-26T20:28:52.141Z,95079.06
2022-09-26T20:31:26.168Z,95085.75
2022-09-26T20:33:59.228Z,95077.47
2022-09-26T20:36:33.070Z,94940.84
2022-09-26T20:39:05.582Z,95108.03
2022-09-26T20:41:36.725Z,95082.94
2022-09-26T20:44:08.828Z,95094.06
2022-09-26T20:46:40.484Z,95036.75
2022-09-26T20:49:16.273Z,95046.00
2022-09-26T20:51:46.321Z,95075.97
2022-09-26T20:54:26.857Z,95012.41
2022-09-26T20:56:56.329Z,95046.06
2022-09-26T20:59:25.299Z,95042.00
2022-09-26T21:01:55.728Z,95079.63
2022-09-26T21:04:32.082Z,95054.53
2022-09-26T21:07:01.618Z,95027.97
2022-09-26T21:09:29.824Z,95053.72
2022-09-26T21:11:57.997Z,95022.53
2022-09-26T21:14:26.237Z,95064.66
2022-09-26T21:16:54.642Z,95034.25
2022-09-26T21:19:24.990Z,95006.13
2022-09-26T21:22:04.663Z,95025.34
2022-09-26T21:24:40.627Z,94871.53
2022-09-26T21:27:12.113Z,95024.31
2022-09-26T21:29:40.356Z,95059.00
2022-09-26T21:32:13.178Z,95020.09
2022-09-26T21:34:42.661Z,95055.13
2022-09-26T21:37:12.590Z,95064.66
2022-09-26T21:39:40.993Z,94970.59
2022-09-26T21:42:09.257Z,95003.72
2022-09-26T21:44:42.632Z,95015.41
2022-09-26T21:47:11.400Z,95022.72
2022-09-26T21:49:39.577Z,95031.03
2022-09-26T21:52:13.792Z,95036.72
2022-09-26T21:54:44.779Z,95039.78
2022-09-26T21:57:19.560Z,95010.38
2022-09-26T21:59:50.799Z,95034.13
2022-09-26T22:02:19.012Z,95029.66
2022-09-26T22:04:47.890Z,94999.69
2022-09-26T22:07:17.419Z,94948.09
2022-09-26T22:09:48.256Z,95011.69
2022-09-26T22:12:16.713Z,95057.78
2022-09-26T22:14:44.906Z,94986.56
2022-09-26T22:17:13.170Z,94989.41
2022-09-26T22:19:41.488Z,94925.03
2022-09-26T22:22:10.677Z,94965.28
2022-09-26T22:24:40.253Z,94960.22
2022-09-26T22:27:08.406Z,94962.66
2022-09-26T22:29:36.580Z,94967.94
2022-09-26T22:32:06.214Z,94949.13
2022-09-26T22:34:34.401Z,94974.22
2022-09-26T22:37:02.522Z,94953.34
2022-09-26T22:39:30.656Z,94932.31
2022-09-26T22:42:00.595Z,94963.88
2022-09-26T22:44:28.776Z,94936.38
2022-09-26T22:46:56.896Z,94961.88
2022-09-26T22:49:25.268Z,94974.41
2022-09-26T22:51:53.533Z,94967.53
2022-09-26T22:54:21.748Z,94981.47
2022-09-26T22:56:50.251Z,94950.53
2022-09-26T22:59:19.784Z,94914.72
2022-09-26T23:01:49.884Z,94964.66
2022-09-26T23:04:18.369Z,95012.25
2022-09-26T23:06:46.514Z,94942.41
2022-09-26T23:09:14.956Z,94867.31
2022-09-26T23:11:43.199Z,94944.03
2022-09-26T23:14:11.368Z,94967.69
2022-09-26T23:16:40.932Z,94914.50
2022-09-26T23:19:09.225Z,94836.72
2022-09-26T23:21:37.402Z,94922.56
2022-09-26T23:24:30.328Z,94898.69
2022-09-26T23:26:59.076Z,94900.31
2022-09-26T23:29:27.579Z,94905.53
2022-09-26T23:31:57.842Z,94876.47
2022-09-26T23:34:26.278Z,94887.38
2022-09-26T23:36:54.451Z,94873.41
2022-09-26T23:39:22.963Z,94834.00
2022-09-26T23:41:51.154Z,94906.53
2022-09-26T23:44:19.343Z,94880.50
2022-09-26T23:46:47.487Z,94849.19
2022-09-26T23:49:17.014Z,94884.72
2022-09-26T23:51:47.510Z,94913.41
2022-09-26T23:54:15.710Z,94841.69
2022-09-26T23:56:43.865Z,94845.31
2022-09-26T23:59:12.262Z,94813.41
